sensor_id;sensor_type;location;lat;lon;timestamp;P1;durP1;ratioP1;P2;durP2;ratioP2
43527;SDS011;52359;42.658;23.320;2023-03-23T07:15:55;31.40;;;20.20;;
43527;SDS011;52359;42.658;23.320;2023-03-23T07:18:22;27.63;;;17.13;;
43527;SDS011;52359;42.658;23.320;2023-03-23T07:20:49;29.65;;;18.50;;
43527;SDS011;52359;42.658;23.320;2023-03-23T07:23:15;26.33;;;16.85;;
43527;SDS011;52359;42.658;23.320;2023-03-23T07:25:41;35.42;;;17.38;;
43527;SDS011;52359;42.658;23.320;2023-03-23T07:28:08;27.30;;;16.67;;
43527;SDS011;52359;42.658;23.320;2023-03-23T07:30:33;31.30;;;16.42;;
43527;SDS011;52359;42.658;23.320;2023-03-23T07:33:03;23.00;;;14.65;;
43527;SDS011;52359;42.658;23.320;2023-03-23T07:35:29;22.73;;;14.98;;
43527;SDS011;52359;42.658;23.320;2023-03-23T07:37:56;24.70;;;15.13;;
43527;SDS011;52359;42.658;23.320;2023-03-23T07:40:22;23.27;;;16.55;;
43527;SDS011;52359;42.658;23.320;2023-03-23T07:42:51;24.13;;;16.45;;
43527;SDS011;52359;42.658;23.320;2023-03-23T07:45:17;23.92;;;16.75;;
43527;SDS011;52359;42.658;23.320;2023-03-23T07:47:43;45.08;;;18.42;;
43527;SDS011;52359;42.658;23.320;2023-03-23T07:50:10;27.42;;;15.20;;
43527;SDS011;52359;42.658;23.320;2023-03-23T07:52:37;23.42;;;15.65;;
43527;SDS011;52359;42.658;23.320;2023-03-23T07:55:04;25.73;;;15.45;;
43527;SDS011;52359;42.658;23.320;2023-03-23T07:57:31;30.63;;;14.43;;
43527;SDS011;52359;42.658;23.320;2023-03-23T07:59:57;24.38;;;14.73;;
43527;SDS011;52359;42.658;23.320;2023-03-23T08:02:24;24.63;;;15.75;;
43527;SDS011;52359;42.658;23.320;2023-03-23T08:04:51;23.60;;;14.00;;
43527;SDS011;52359;42.658;23.320;2023-03-23T08:07:18;27.92;;;14.35;;
43527;SDS011;52359;42.658;23.320;2023-03-23T08:09:45;22.35;;;14.70;;
43527;SDS011;52359;42.658;23.320;2023-03-23T08:12:11;26.70;;;15.00;;
43527;SDS011;52359;42.658;23.320;2023-03-23T08:14:37;21.35;;;13.43;;
43527;SDS011;52359;42.658;23.320;2023-03-23T08:17:05;25.77;;;14.27;;
43527;SDS011;52359;42.658;23.320;2023-03-23T08:19:31;26.25;;;15.15;;
43527;SDS011;52359;42.658;23.320;2023-03-23T08:22:02;19.75;;;13.77;;
43527;SDS011;52359;42.658;23.320;2023-03-23T08:24:28;25.98;;;13.77;;
43527;SDS011;52359;42.658;23.320;2023-03-23T08:26:54;20.75;;;13.13;;
43527;SDS011;52359;42.658;23.320;2023-03-23T08:29:20;15.73;;;11.60;;
43527;SDS011;52359;42.658;23.320;2023-03-23T08:31:46;21.88;;;12.90;;
43527;SDS011;52359;42.658;23.320;2023-03-23T08:34:12;22.73;;;12.60;;
43527;SDS011;52359;42.658;23.320;2023-03-23T08:36:38;37.38;;;12.32;;
43527;SDS011;52359;42.658;23.320;2023-03-23T08:39:04;19.67;;;9.88;;
43527;SDS011;52359;42.658;23.320;2023-03-23T08:41:31;17.38;;;10.40;;
43527;SDS011;52359;42.658;23.320;2023-03-23T08:43:57;13.50;;;9.52;;
43527;SDS011;52359;42.658;23.320;2023-03-23T08:46:24;15.82;;;10.65;;
43527;SDS011;52359;42.658;23.320;2023-03-23T08:48:50;18.38;;;9.95;;
43527;SDS011;52359;42.658;23.320;2023-03-23T08:51:16;8.65;;;7.75;;
43527;SDS011;52359;42.658;23.320;2023-03-23T08:53:42;10.23;;;6.95;;
43527;SDS011;52359;42.658;23.320;2023-03-23T08:56:09;7.03;;;5.57;;
43527;SDS011;52359;42.658;23.320;2023-03-23T08:58:37;5.22;;;4.75;;
43527;SDS011;52359;42.658;23.320;2023-03-23T09:01:04;10.82;;;5.68;;
43527;SDS011;52359;42.658;23.320;2023-03-23T09:03:31;14.73;;;5.75;;
43527;SDS011;52359;42.658;23.320;2023-03-23T09:05:58;5.93;;;5.30;;
43527;SDS011;52359;42.658;23.320;2023-03-23T09:08:25;12.43;;;6.30;;
43527;SDS011;52359;42.658;23.320;2023-03-23T09:10:53;6.63;;;5.38;;
43527;SDS011;52359;42.658;23.320;2023-03-23T09:13:19;7.15;;;6.43;;
43527;SDS011;52359;42.658;23.320;2023-03-23T09:15:46;13.30;;;6.00;;
43527;SDS011;52359;42.658;23.320;2023-03-23T09:18:12;12.13;;;6.47;;
43527;SDS011;52359;42.658;23.320;2023-03-23T09:20:38;9.88;;;6.65;;
43527;SDS011;52359;42.658;23.320;2023-03-23T09:23:05;8.25;;;6.53;;
43527;SDS011;52359;42.658;23.320;2023-03-23T09:25:31;8.15;;;6.78;;
43527;SDS011;52359;42.658;23.320;2023-03-23T09:27:58;6.93;;;6.32;;
43527;SDS011;52359;42.658;23.320;2023-03-23T09:30:25;11.80;;;7.45;;
43527;SDS011;52359;42.658;23.320;2023-03-23T09:32:51;9.23;;;6.65;;
43527;SDS011;52359;42.658;23.320;2023-03-23T09:35:18;13.32;;;7.25;;
43527;SDS011;52359;42.658;23.320;2023-03-23T09:37:46;10.63;;;7.25;;
43527;SDS011;52359;42.658;23.320;2023-03-23T09:40:14;13.77;;;7.68;;
43527;SDS011;52359;42.658;23.320;2023-03-23T09:51:40;15.43;;;7.07;;
43527;SDS011;52359;42.658;23.320;2023-03-23T09:53:45;16.30;;;6.32;;
43527;SDS011;52359;42.658;23.320;2023-03-23T09:56:14;7.70;;;6.78;;
43527;SDS011;52359;42.658;23.320;2023-03-23T10:01:20;10.18;;;6.85;;
43527;SDS011;52359;42.658;23.320;2023-03-23T10:03:48;7.20;;;6.57;;
43527;SDS011;52359;42.658;23.320;2023-03-23T10:06:15;13.63;;;6.65;;
43527;SDS011;52359;42.658;23.320;2023-03-23T10:08:49;7.75;;;6.95;;
43527;SDS011;52359;42.658;23.320;2023-03-23T10:16:46;9.45;;;6.72;;
43527;SDS011;52359;42.658;23.320;2023-03-23T10:19:29;13.57;;;6.95;;
43527;SDS011;52359;42.658;23.320;2023-03-23T10:22:03;12.75;;;7.00;;
43527;SDS011;52359;42.658;23.320;2023-03-23T10:24:49;16.40;;;6.95;;
43527;SDS011;52359;42.658;23.320;2023-03-23T10:27:18;10.25;;;5.90;;
43527;SDS011;52359;42.658;23.320;2023-03-23T10:29:48;8.45;;;5.82;;
43527;SDS011;52359;42.658;23.320;2023-03-23T10:35:15;14.98;;;6.22;;
43527;SDS011;52359;42.658;23.320;2023-03-23T10:37:46;6.55;;;5.68;;
43527;SDS011;52359;42.658;23.320;2023-03-23T10:40:18;6.65;;;6.03;;
43527;SDS011;52359;42.658;23.320;2023-03-23T10:42:45;5.68;;;5.20;;
43527;SDS011;52359;42.658;23.320;2023-03-23T10:47:39;9.15;;;5.63;;
43527;SDS011;52359;42.658;23.320;2023-03-23T10:50:11;6.60;;;5.45;;
43527;SDS011;52359;42.658;23.320;2023-03-23T10:52:39;6.88;;;5.43;;
43527;SDS011;52359;42.658;23.320;2023-03-23T10:57:58;11.10;;;6.00;;
43527;SDS011;52359;42.658;23.320;2023-03-23T11:00:26;5.95;;;5.35;;
43527;SDS011;52359;42.658;23.320;2023-03-23T11:05:36;7.18;;;4.45;;
43527;SDS011;52359;42.658;23.320;2023-03-23T11:08:16;5.25;;;4.85;;
43527;SDS011;52359;42.658;23.320;2023-03-23T11:10:48;6.53;;;4.63;;
43527;SDS011;52359;42.658;23.320;2023-03-23T11:13:23;7.60;;;4.90;;
43527;SDS011;52359;42.658;23.320;2023-03-23T11:15:55;5.90;;;5.40;;
43527;SDS011;52359;42.658;23.320;2023-03-23T11:18:26;7.00;;;5.50;;
43527;SDS011;52359;42.658;23.320;2023-03-23T11:21:01;6.82;;;5.43;;
43527;SDS011;52359;42.658;23.320;2023-03-23T11:23:38;8.35;;;5.10;;
43527;SDS011;52359;42.658;23.320;2023-03-23T11:33:55;6.43;;;4.60;;
43527;SDS011;52359;42.658;23.320;2023-03-23T11:36:30;5.47;;;4.97;;
43527;SDS011;52359;42.658;23.320;2023-03-23T11:38:56;6.00;;;4.90;;
43527;SDS011;52359;42.658;23.320;2023-03-23T11:41:23;5.57;;;4.57;;
43527;SDS011;52359;42.658;23.320;2023-03-23T11:43:51;4.78;;;4.40;;
43527;SDS011;52359;42.658;23.320;2023-03-23T11:46:32;4.57;;;4.25;;
43527;SDS011;52359;42.658;23.320;2023-03-23T11:49:01;6.93;;;4.13;;
43527;SDS011;52359;42.658;23.320;2023-03-23T11:51:45;6.20;;;4.38;;
43527;SDS011;52359;42.658;23.320;2023-03-23T11:54:26;6.40;;;4.53;;
43527;SDS011;52359;42.658;23.320;2023-03-23T11:56:52;5.80;;;4.03;;
43527;SDS011;52359;42.658;23.320;2023-03-23T11:59:31;4.70;;;4.32;;
43527;SDS011;52359;42.658;23.320;2023-03-23T12:04:41;4.90;;;4.15;;
43527;SDS011;52359;42.658;23.320;2023-03-23T12:10:08;4.60;;;4.22;;
43527;SDS011;52359;42.658;23.320;2023-03-23T12:12:35;3.95;;;3.55;;
43527;SDS011;52359;42.658;23.320;2023-03-23T12:23:28;8.55;;;4.32;;
43527;SDS011;52359;42.658;23.320;2023-03-23T12:41:07;4.30;;;3.95;;
43527;SDS011;52359;42.658;23.320;2023-03-23T12:43:38;10.18;;;4.82;;
43527;SDS011;52359;42.658;23.320;2023-03-23T12:48:56;9.77;;;4.30;;
43527;SDS011;52359;42.658;23.320;2023-03-23T12:53:53;5.65;;;4.13;;
43527;SDS011;52359;42.658;23.320;2023-03-23T12:56:29;6.05;;;4.60;;
43527;SDS011;52359;42.658;23.320;2023-03-23T12:58:59;4.95;;;4.55;;
43527;SDS011;52359;42.658;23.320;2023-03-23T13:01:27;7.65;;;4.47;;
43527;SDS011;52359;42.658;23.320;2023-03-23T13:06:40;9.27;;;4.63;;
43527;SDS011;52359;42.658;23.320;2023-03-23T13:09:15;4.70;;;4.30;;
43527;SDS011;52359;42.658;23.320;2023-03-23T13:12:01;4.30;;;3.95;;
43527;SDS011;52359;42.658;23.320;2023-03-23T13:23:15;5.20;;;4.68;;
43527;SDS011;52359;42.658;23.320;2023-03-23T13:28:25;5.65;;;4.10;;
43527;SDS011;52359;42.658;23.320;2023-03-23T13:30:57;4.00;;;3.70;;
43527;SDS011;52359;42.658;23.320;2023-03-23T13:33:23;4.37;;;3.97;;
43527;SDS011;52359;42.658;23.320;2023-03-23T13:35:50;5.07;;;4.57;;
43527;SDS011;52359;42.658;23.320;2023-03-23T13:38:24;6.72;;;4.40;;
43527;SDS011;52359;42.658;23.320;2023-03-23T13:40:50;4.47;;;4.10;;
43527;SDS011;52359;42.658;23.320;2023-03-23T13:43:27;7.43;;;4.43;;
43527;SDS011;52359;42.658;23.320;2023-03-23T13:45:54;15.35;;;5.00;;
43527;SDS011;52359;42.658;23.320;2023-03-23T13:48:23;4.70;;;3.97;;
43527;SDS011;52359;42.658;23.320;2023-03-23T13:56:21;4.45;;;4.05;;
43527;SDS011;52359;42.658;23.320;2023-03-23T13:59:05;4.50;;;3.90;;
43527;SDS011;52359;42.658;23.320;2023-03-23T14:01:40;6.70;;;4.13;;
43527;SDS011;52359;42.658;23.320;2023-03-23T14:04:11;6.60;;;3.97;;
43527;SDS011;52359;42.658;23.320;2023-03-23T14:06:39;5.25;;;4.75;;
43527;SDS011;52359;42.658;23.320;2023-03-23T14:09:09;17.23;;;4.93;;
43527;SDS011;52359;42.658;23.320;2023-03-23T14:11:45;8.13;;;4.20;;
43527;SDS011;52359;42.658;23.320;2023-03-23T14:14:28;7.97;;;4.20;;
43527;SDS011;52359;42.658;23.320;2023-03-23T14:17:05;6.47;;;4.00;;
43527;SDS011;52359;42.658;23.320;2023-03-23T14:19:31;5.53;;;3.83;;
43527;SDS011;52359;42.658;23.320;2023-03-23T14:21:58;7.78;;;4.88;;
43527;SDS011;52359;42.658;23.320;2023-03-23T14:24:28;8.23;;;4.20;;
43527;SDS011;52359;42.658;23.320;2023-03-23T14:29:30;7.85;;;5.07;;
43527;SDS011;52359;42.658;23.320;2023-03-23T14:31:57;5.43;;;4.68;;
43527;SDS011;52359;42.658;23.320;2023-03-23T14:34:24;6.35;;;4.90;;
43527;SDS011;52359;42.658;23.320;2023-03-23T14:36:51;7.45;;;5.13;;
43527;SDS011;52359;42.658;23.320;2023-03-23T14:41:43;6.65;;;5.07;;
43527;SDS011;52359;42.658;23.320;2023-03-23T14:44:12;9.77;;;5.88;;
43527;SDS011;52359;42.658;23.320;2023-03-23T14:46:39;9.07;;;5.75;;
43527;SDS011;52359;42.658;23.320;2023-03-23T14:49:11;7.40;;;5.40;;
43527;SDS011;52359;42.658;23.320;2023-03-23T14:51:51;6.00;;;5.22;;
43527;SDS011;52359;42.658;23.320;2023-03-23T14:54:23;14.98;;;5.35;;
43527;SDS011;52359;42.658;23.320;2023-03-23T14:56:51;8.87;;;6.13;;
43527;SDS011;52359;42.658;23.320;2023-03-23T14:59:16;8.77;;;5.97;;
43527;SDS011;52359;42.658;23.320;2023-03-23T15:01:42;14.82;;;6.43;;
43527;SDS011;52359;42.658;23.320;2023-03-23T15:04:23;9.07;;;6.10;;
43527;SDS011;52359;42.658;23.320;2023-03-23T15:06:55;6.53;;;5.00;;
43527;SDS011;52359;42.658;23.320;2023-03-23T15:09:22;14.38;;;6.07;;
43527;SDS011;52359;42.658;23.320;2023-03-23T15:11:53;6.35;;;5.03;;
43527;SDS011;52359;42.658;23.320;2023-03-23T15:14:24;16.90;;;5.95;;
43527;SDS011;52359;42.658;23.320;2023-03-23T15:16:52;6.13;;;4.93;;
43527;SDS011;52359;42.658;23.320;2023-03-23T15:19:21;6.35;;;5.70;;
43527;SDS011;52359;42.658;23.320;2023-03-23T15:21:52;10.18;;;5.47;;
43527;SDS011;52359;42.658;23.320;2023-03-23T15:24:27;10.40;;;6.38;;
43527;SDS011;52359;42.658;23.320;2023-03-23T15:26:53;10.07;;;6.07;;
43527;SDS011;52359;42.658;23.320;2023-03-23T15:29:28;9.63;;;5.68;;
43527;SDS011;52359;42.658;23.320;2023-03-23T15:31:54;20.95;;;6.80;;
43527;SDS011;52359;42.658;23.320;2023-03-23T15:34:31;9.00;;;7.00;;
43527;SDS011;52359;42.658;23.320;2023-03-23T15:37:01;11.68;;;6.22;;
43527;SDS011;52359;42.658;23.320;2023-03-23T15:39:28;12.07;;;6.18;;
43527;SDS011;52359;42.658;23.320;2023-03-23T15:41:55;13.18;;;6.15;;
43527;SDS011;52359;42.658;23.320;2023-03-23T15:44:23;13.90;;;6.22;;
43527;SDS011;52359;42.658;23.320;2023-03-23T15:46:50;9.90;;;6.63;;
43527;SDS011;52359;42.658;23.320;2023-03-23T15:49:17;9.88;;;6.53;;
43527;SDS011;52359;42.658;23.320;2023-03-23T15:51:43;15.85;;;6.57;;
43527;SDS011;52359;42.658;23.320;2023-03-23T15:54:12;11.85;;;6.40;;
43527;SDS011;52359;42.658;23.320;2023-03-23T15:56:38;17.00;;;5.85;;
43527;SDS011;52359;42.658;23.320;2023-03-23T15:59:04;8.75;;;6.13;;
43527;SDS011;52359;42.658;23.320;2023-03-23T16:01:31;12.00;;;6.57;;
43527;SDS011;52359;42.658;23.320;2023-03-23T16:04:04;13.13;;;6.03;;
43527;SDS011;52359;42.658;23.320;2023-03-23T16:06:31;25.80;;;6.95;;
43527;SDS011;52359;42.658;23.320;2023-03-23T16:08:58;10.35;;;6.15;;
43527;SDS011;52359;42.658;23.320;2023-03-23T16:11:25;16.77;;;6.90;;
43527;SDS011;52359;42.658;23.320;2023-03-23T16:13:51;10.52;;;6.70;;
43527;SDS011;52359;42.658;23.320;2023-03-23T16:16:22;11.95;;;6.53;;
43527;SDS011;52359;42.658;23.320;2023-03-23T16:18:48;15.07;;;6.40;;
43527;SDS011;52359;42.658;23.320;2023-03-23T16:21:14;15.27;;;6.65;;
43527;SDS011;52359;42.658;23.320;2023-03-23T16:23:40;15.38;;;7.03;;
43527;SDS011;52359;42.658;23.320;2023-03-23T16:26:09;13.50;;;6.32;;
43527;SDS011;52359;42.658;23.320;2023-03-23T16:28:35;9.43;;;6.80;;
43527;SDS011;52359;42.658;23.320;2023-03-23T16:31:01;10.57;;;6.15;;
43527;SDS011;52359;42.658;23.320;2023-03-23T16:33:27;15.75;;;7.20;;
43527;SDS011;52359;42.658;23.320;2023-03-23T16:35:54;22.02;;;9.10;;
43527;SDS011;52359;42.658;23.320;2023-03-23T16:38:21;19.45;;;9.48;;
43527;SDS011;52359;42.658;23.320;2023-03-23T16:40:47;31.90;;;14.32;;
43527;SDS011;52359;42.658;23.320;2023-03-23T16:43:13;22.63;;;11.07;;
43527;SDS011;52359;42.658;23.320;2023-03-23T16:45:39;17.10;;;9.75;;
43527;SDS011;52359;42.658;23.320;2023-03-23T16:48:06;18.63;;;9.07;;
43527;SDS011;52359;42.658;23.320;2023-03-23T16:50:33;23.17;;;9.45;;
43527;SDS011;52359;42.658;23.320;2023-03-23T16:53:00;22.13;;;10.60;;
43527;SDS011;52359;42.658;23.320;2023-03-23T16:55:26;21.23;;;11.18;;
43527;SDS011;52359;42.658;23.320;2023-03-23T16:57:52;20.60;;;8.95;;
43527;SDS011;52359;42.658;23.320;2023-03-23T17:00:19;17.08;;;10.15;;
43527;SDS011;52359;42.658;23.320;2023-03-23T17:02:46;19.45;;;9.63;;
43527;SDS011;52359;42.658;23.320;2023-03-23T17:05:15;22.80;;;10.60;;
43527;SDS011;52359;42.658;23.320;2023-03-23T17:07:43;19.92;;;9.65;;
43527;SDS011;52359;42.658;23.320;2023-03-23T17:10:10;28.08;;;10.55;;
43527;SDS011;52359;42.658;23.320;2023-03-23T17:12:35;28.50;;;11.02;;
43527;SDS011;52359;42.658;23.320;2023-03-23T17:15:01;25.70;;;9.82;;
43527;SDS011;52359;42.658;23.320;2023-03-23T17:17:27;25.27;;;10.32;;
43527;SDS011;52359;42.658;23.320;2023-03-23T17:19:53;20.10;;;10.05;;
43527;SDS011;52359;42.658;23.320;2023-03-23T17:22:19;24.27;;;9.80;;
43527;SDS011;52359;42.658;23.320;2023-03-23T17:24:45;20.27;;;9.73;;
43527;SDS011;52359;42.658;23.320;2023-03-23T17:27:12;20.58;;;10.23;;
43527;SDS011;52359;42.658;23.320;2023-03-23T17:29:40;17.98;;;8.80;;
43527;SDS011;52359;42.658;23.320;2023-03-23T17:32:06;23.80;;;9.90;;
43527;SDS011;52359;42.658;23.320;2023-03-23T17:34:32;19.70;;;9.43;;
43527;SDS011;52359;42.658;23.320;2023-03-23T17:36:57;20.83;;;10.73;;
43527;SDS011;52359;42.658;23.320;2023-03-23T17:39:23;22.55;;;12.27;;
43527;SDS011;52359;42.658;23.320;2023-03-23T17:41:49;25.80;;;11.43;;
43527;SDS011;52359;42.658;23.320;2023-03-23T17:44:14;20.02;;;9.98;;
43527;SDS011;52359;42.658;23.320;2023-03-23T17:46:40;31.00;;;13.45;;
43527;SDS011;52359;42.658;23.320;2023-03-23T17:49:06;22.63;;;13.23;;
43527;SDS011;52359;42.658;23.320;2023-03-23T17:51:31;24.63;;;13.48;;
43527;SDS011;52359;42.658;23.320;2023-03-23T17:53:58;35.92;;;13.25;;
43527;SDS011;52359;42.658;23.320;2023-03-23T17:56:24;24.73;;;12.73;;
43527;SDS011;52359;42.658;23.320;2023-03-23T17:58:49;39.70;;;12.70;;
43527;SDS011;52359;42.658;23.320;2023-03-23T18:01:15;38.90;;;12.35;;
43527;SDS011;52359;42.658;23.320;2023-03-23T18:03:41;49.08;;;14.15;;
43527;SDS011;52359;42.658;23.320;2023-03-23T18:06:07;40.78;;;13.98;;
43527;SDS011;52359;42.658;23.320;2023-03-23T18:08:33;30.48;;;12.13;;
43527;SDS011;52359;42.658;23.320;2023-03-23T18:11:00;26.85;;;10.07;;
43527;SDS011;52359;42.658;23.320;2023-03-23T18:13:26;24.77;;;11.13;;
43527;SDS011;52359;42.658;23.320;2023-03-23T18:15:54;41.70;;;13.85;;
43527;SDS011;52359;42.658;23.320;2023-03-23T18:18:21;36.30;;;12.80;;
43527;SDS011;52359;42.658;23.320;2023-03-23T18:20:59;36.60;;;12.85;;
43527;SDS011;52359;42.658;23.320;2023-03-23T18:23:29;26.48;;;11.82;;
43527;SDS011;52359;42.658;23.320;2023-03-23T18:25:59;29.05;;;11.90;;
43527;SDS011;52359;42.658;23.320;2023-03-23T18:28:36;34.13;;;13.45;;
43527;SDS011;52359;42.658;23.320;2023-03-23T18:31:02;28.05;;;13.27;;
43527;SDS011;52359;42.658;23.320;2023-03-23T18:33:30;42.90;;;13.52;;
43527;SDS011;52359;42.658;23.320;2023-03-23T18:35:57;44.00;;;14.27;;
43527;SDS011;52359;42.658;23.320;2023-03-23T18:38:25;45.42;;;14.48;;
43527;SDS011;52359;42.658;23.320;2023-03-23T18:40:51;49.92;;;14.15;;
43527;SDS011;52359;42.658;23.320;2023-03-23T18:43:17;40.33;;;12.07;;
43527;SDS011;52359;42.658;23.320;2023-03-23T18:45:49;30.30;;;12.35;;
43527;SDS011;52359;42.658;23.320;2023-03-23T18:48:19;35.80;;;12.65;;
43527;SDS011;52359;42.658;23.320;2023-03-23T18:50:46;23.95;;;12.43;;
43527;SDS011;52359;42.658;23.320;2023-03-23T18:53:12;23.42;;;11.15;;
43527;SDS011;52359;42.658;23.320;2023-03-23T18:55:39;19.58;;;10.40;;
43527;SDS011;52359;42.658;23.320;2023-03-23T18:58:06;21.73;;;10.32;;
43527;SDS011;52359;42.658;23.320;2023-03-23T19:00:31;28.85;;;10.90;;
43527;SDS011;52359;42.658;23.320;2023-03-23T19:02:58;27.30;;;11.55;;
43527;SDS011;52359;42.658;23.320;2023-03-23T19:05:24;21.05;;;10.77;;
43527;SDS011;52359;42.658;23.320;2023-03-23T19:07:50;28.90;;;11.70;;
43527;SDS011;52359;42.658;23.320;2023-03-23T19:10:19;28.08;;;12.20;;
43527;SDS011;52359;42.658;23.320;2023-03-23T19:12:47;25.05;;;11.10;;
43527;SDS011;52359;42.658;23.320;2023-03-23T19:15:13;28.00;;;11.20;;
43527;SDS011;52359;42.658;23.320;2023-03-23T19:17:40;31.75;;;10.40;;
43527;SDS011;52359;42.658;23.320;2023-03-23T19:20:06;29.27;;;11.77;;
43527;SDS011;52359;42.658;23.320;2023-03-23T19:22:34;29.00;;;11.48;;
43527;SDS011;52359;42.658;23.320;2023-03-23T19:25:01;24.85;;;10.38;;
43527;SDS011;52359;42.658;23.320;2023-03-23T19:27:27;19.02;;;9.63;;
43527;SDS011;52359;42.658;23.320;2023-03-23T19:29:52;33.70;;;12.95;;
43527;SDS011;52359;42.658;23.320;2023-03-23T19:32:18;18.40;;;10.50;;
43527;SDS011;52359;42.658;23.320;2023-03-23T19:34:44;29.02;;;13.07;;
43527;SDS011;52359;42.658;23.320;2023-03-23T19:37:10;38.10;;;13.05;;
43527;SDS011;52359;42.658;23.320;2023-03-23T19:39:36;27.70;;;13.68;;
43527;SDS011;52359;42.658;23.320;2023-03-23T19:42:02;34.72;;;15.02;;
43527;SDS011;52359;42.658;23.320;2023-03-23T19:44:28;28.10;;;15.15;;
43527;SDS011;52359;42.658;23.320;2023-03-23T19:46:53;26.63;;;14.60;;
43527;SDS011;52359;42.658;23.320;2023-03-23T19:49:19;33.50;;;15.52;;
43527;SDS011;52359;42.658;23.320;2023-03-23T19:51:45;28.30;;;13.95;;
43527;SDS011;52359;42.658;23.320;2023-03-23T19:54:11;28.02;;;12.35;;
43527;SDS011;52359;42.658;23.320;2023-03-23T19:56:37;31.75;;;14.95;;
43527;SDS011;52359;42.658;23.320;2023-03-23T19:59:03;41.78;;;15.27;;
43527;SDS011;52359;42.658;23.320;2023-03-23T20:01:29;50.88;;;16.98;;
43527;SDS011;52359;42.658;23.320;2023-03-23T20:03:54;42.90;;;15.27;;
43527;SDS011;52359;42.658;23.320;2023-03-23T20:06:21;31.13;;;15.18;;
43527;SDS011;52359;42.658;23.320;2023-03-23T20:08:47;51.83;;;15.13;;
43527;SDS011;52359;42.658;23.320;2023-03-23T20:11:16;44.95;;;15.38;;
43527;SDS011;52359;42.658;23.320;2023-03-23T20:13:43;30.15;;;15.07;;
43527;SDS011;52359;42.658;23.320;2023-03-23T20:16:10;23.38;;;13.25;;
43527;SDS011;52359;42.658;23.320;2023-03-23T20:18:36;33.70;;;13.57;;
43527;SDS011;52359;42.658;23.320;2023-03-23T20:21:02;37.65;;;13.93;;
43527;SDS011;52359;42.658;23.320;2023-03-23T20:23:31;29.25;;;14.25;;
43527;SDS011;52359;42.658;23.320;2023-03-23T20:26:05;45.20;;;14.98;;
43527;SDS011;52359;42.658;23.320;2023-03-23T20:28:42;34.63;;;14.57;;
43527;SDS011;52359;42.658;23.320;2023-03-23T20:31:16;36.63;;;14.52;;
43527;SDS011;52359;42.658;23.320;2023-03-23T20:33:48;43.22;;;15.82;;
43527;SDS011;52359;42.658;23.320;2023-03-23T20:36:15;21.00;;;13.23;;
43527;SDS011;52359;42.658;23.320;2023-03-23T20:38:45;38.13;;;15.80;;
43527;SDS011;52359;42.658;23.320;2023-03-23T20:41:12;47.42;;;16.38;;
43527;SDS011;52359;42.658;23.320;2023-03-23T20:43:40;36.88;;;16.50;;
43527;SDS011;52359;42.658;23.320;2023-03-23T20:46:07;38.88;;;17.13;;
43527;SDS011;52359;42.658;23.320;2023-03-23T20:48:35;47.40;;;17.05;;
43527;SDS011;52359;42.658;23.320;2023-03-23T20:51:03;48.05;;;18.23;;
43527;SDS011;52359;42.658;23.320;2023-03-23T20:53:32;47.38;;;16.52;;
43527;SDS011;52359;42.658;23.320;2023-03-23T20:55:59;40.47;;;16.17;;
43527;SDS011;52359;42.658;23.320;2023-03-23T20:58:27;38.95;;;15.98;;
43527;SDS011;52359;42.658;23.320;2023-03-23T21:00:54;41.65;;;17.23;;
43527;SDS011;52359;42.658;23.320;2023-03-23T21:03:22;54.17;;;16.02;;
43527;SDS011;52359;42.658;23.320;2023-03-23T21:05:48;42.13;;;16.10;;
43527;SDS011;52359;42.658;23.320;2023-03-23T21:08:14;43.38;;;16.25;;
43527;SDS011;52359;42.658;23.320;2023-03-23T21:10:42;38.75;;;17.17;;
43527;SDS011;52359;42.658;23.320;2023-03-23T21:13:08;35.10;;;16.60;;
43527;SDS011;52359;42.658;23.320;2023-03-23T21:15:34;33.58;;;14.13;;
43527;SDS011;52359;42.658;23.320;2023-03-23T21:18:00;44.00;;;15.85;;
43527;SDS011;52359;42.658;23.320;2023-03-23T21:20:26;24.75;;;15.18;;
43527;SDS011;52359;42.658;23.320;2023-03-23T21:22:52;40.38;;;15.48;;
43527;SDS011;52359;42.658;23.320;2023-03-23T21:25:18;37.55;;;15.63;;
43527;SDS011;52359;42.658;23.320;2023-03-23T21:27:46;31.55;;;15.27;;
43527;SDS011;52359;42.658;23.320;2023-03-23T21:30:12;32.88;;;15.75;;
43527;SDS011;52359;42.658;23.320;2023-03-23T21:32:38;38.63;;;16.48;;
43527;SDS011;52359;42.658;23.320;2023-03-23T21:35:04;40.45;;;17.52;;
43527;SDS011;52359;42.658;23.320;2023-03-23T21:37:30;29.13;;;16.23;;
43527;SDS011;52359;42.658;23.320;2023-03-23T21:39:56;28.20;;;15.70;;
43527;SDS011;52359;42.658;23.320;2023-03-23T21:42:22;53.90;;;15.95;;
43527;SDS011;52359;42.658;23.320;2023-03-23T21:44:57;42.78;;;15.57;;
43527;SDS011;52359;42.658;23.320;2023-03-23T21:47:27;45.58;;;16.15;;
43527;SDS011;52359;42.658;23.320;2023-03-23T21:49:55;38.53;;;16.50;;
43527;SDS011;52359;42.658;23.320;2023-03-23T21:52:24;43.17;;;16.60;;
43527;SDS011;52359;42.658;23.320;2023-03-23T21:54:50;37.33;;;16.02;;
43527;SDS011;52359;42.658;23.320;2023-03-23T21:57:17;30.63;;;15.10;;
43527;SDS011;52359;42.658;23.320;2023-03-23T21:59:44;35.05;;;16.73;;
43527;SDS011;52359;42.658;23.320;2023-03-23T22:02:10;44.28;;;16.35;;
43527;SDS011;52359;42.658;23.320;2023-03-23T22:04:38;42.42;;;16.88;;
43527;SDS011;52359;42.658;23.320;2023-03-23T22:07:04;41.83;;;16.83;;
43527;SDS011;52359;42.658;23.320;2023-03-23T22:09:29;33.50;;;16.50;;
43527;SDS011;52359;42.658;23.320;2023-03-23T22:11:55;42.08;;;17.25;;
43527;SDS011;52359;42.658;23.320;2023-03-23T22:14:21;40.28;;;15.73;;
43527;SDS011;52359;42.658;23.320;2023-03-23T22:16:47;43.35;;;16.83;;
43527;SDS011;52359;42.658;23.320;2023-03-23T22:19:13;38.20;;;17.90;;
43527;SDS011;52359;42.658;23.320;2023-03-23T22:21:38;40.97;;;16.65;;
43527;SDS011;52359;42.658;23.320;2023-03-23T22:24:04;28.98;;;16.98;;
43527;SDS011;52359;42.658;23.320;2023-03-23T22:26:30;35.50;;;15.15;;
43527;SDS011;52359;42.658;23.320;2023-03-23T22:28:57;34.63;;;15.85;;
43527;SDS011;52359;42.658;23.320;2023-03-23T22:31:24;44.47;;;15.85;;
43527;SDS011;52359;42.658;23.320;2023-03-23T22:33:52;30.55;;;15.55;;
43527;SDS011;52359;42.658;23.320;2023-03-23T22:36:20;33.53;;;16.48;;
43527;SDS011;52359;42.658;23.320;2023-03-23T22:38:49;42.97;;;15.15;;
43527;SDS011;52359;42.658;23.320;2023-03-23T22:41:19;46.42;;;16.70;;
43527;SDS011;52359;42.658;23.320;2023-03-23T22:43:50;41.58;;;16.35;;
43527;SDS011;52359;42.658;23.320;2023-03-23T22:46:16;37.55;;;15.38;;
43527;SDS011;52359;42.658;23.320;2023-03-23T22:48:42;31.75;;;15.57;;
43527;SDS011;52359;42.658;23.320;2023-03-23T22:51:09;45.30;;;16.55;;
43527;SDS011;52359;42.658;23.320;2023-03-23T22:53:36;34.00;;;15.32;;
43527;SDS011;52359;42.658;23.320;2023-03-23T22:56:02;36.13;;;16.05;;
43527;SDS011;52359;42.658;23.320;2023-03-23T22:58:28;34.35;;;15.43;;
43527;SDS011;52359;42.658;23.320;2023-03-23T23:00:59;30.50;;;15.73;;
